Time;durP1;ratioP1;P1;durP2;ratioP2;P2;SDS_P1;SDS_P2;PMS_P1;PMS_P2;Temp;Humidity;BMP_temperature;BMP_pressure;BME280_temperature;BME280_humidity;BME280_pressure;Samples;Min_cycle;Max_cycle;Signal;HPM_P1;HPM_P2
2023/07/21 02:42:21;;;;;;;18.60;13.30;;;;;;;25.42;100.00;100060.65;106384;1284;59891;-90
2023/07/21 02:45:12;;;;;;;16.00;12.20;;;;;;;25.48;100.00;100061.80;106454;1284;66779;-90
2023/07/21 02:48:00;;;;;;;17.80;12.30;;;;;;;25.56;100.00;100063.29;106451;1283;61140;-91
2023/07/21 02:50:52;;;;;;;21.20;11.90;;;;;;;25.57;100.00;100068.80;106242;1284;64134;-90
2023/07/21 02:53:45;;;;;;;22.70;12.10;;;;;;;25.47;100.00;100071.62;106100;1284;61566;-90
2023/07/21 02:56:34;;;;;;;16.10;11.00;;;;;;;25.65;100.00;100076.44;106244;1284;60199;-90
2023/07/21 02:59:27;;;;;;;15.50;12.00;;;;;;;25.70;100.00;100077.68;106302;1284;67885;-90
2023/07/21 03:02:15;;;;;;;17.70;11.70;;;;;;;25.72;100.00;100078.98;106265;1284;60746;-89
2023/07/21 03:05:06;;;;;;;16.20;10.30;;;;;;;25.72;100.00;100082.17;106335;1282;62686;-88
2023/07/21 03:07:54;;;;;;;12.30;8.20;;;;;;;25.73;100.00;100086.41;106465;1284;60489;-90
2023/07/21 03:10:42;;;;;;;14.90;9.30;;;;;;;25.65;100.00;100089.09;106235;1283;60307;-89
2023/07/21 03:13:32;;;;;;;11.20;7.90;;;;;;;25.68;100.00;100089.66;106223;1284;67795;-89
2023/07/21 03:16:20;;;;;;;12.80;8.70;;;;;;;25.87;100.00;100092.17;106521;1284;60519;-90
2023/07/21 03:19:12;;;;;;;13.00;8.30;;;;;;;25.95;100.00;100097.02;106339;1283;64001;-90
2023/07/21 03:22:01;;;;;;;12.80;8.70;;;;;;;26.01;100.00;100101.54;106215;1284;61981;-89
2023/07/21 03:24:50;;;;;;;12.60;7.90;;;;;;;26.16;100.00;100110.00;106355;1284;60736;-91
2023/07/21 03:27:41;;;;;;;11.00;7.50;;;;;;;26.20;100.00;100113.61;106157;1284;67981;-90
2023/07/21 03:30:31;;;;;;;12.60;8.00;;;;;;;26.27;100.00;100114.52;106244;1285;62076;-91
2023/07/21 03:33:28;;;;;;;13.90;8.00;;;;;;;26.35;100.00;100114.23;106298;1284;65334;-90
2023/07/21 03:36:27;;;;;;;7.50;6.70;;;;;;;26.49;100.00;100119.71;106275;1284;59927;-88
2023/07/21 03:39:16;;;;;;;13.00;8.20;;;;;;;26.62;100.00;100128.09;106453;1283;59930;-90
2023/07/21 03:42:06;;;;;;;12.30;8.40;;;;;;;26.58;100.00;100132.02;106251;1285;66927;-90
2023/07/21 03:44:54;;;;;;;5.20;4.70;;;;;;;26.58;100.00;100134.57;106319;1284;61214;-90
2023/07/21 03:47:42;;;;;;;9.20;7.50;;;;;;;26.58;100.00;100137.30;106379;1284;66279;-91
2023/07/21 03:50:30;;;;;;;11.40;7.60;;;;;;;26.70;100.00;100139.66;106251;1284;59899;-91
2023/07/21 03:53:18;;;;;;;10.90;6.90;;;;;;;26.73;100.00;100140.54;106287;1284;60681;-90
2023/07/21 03:56:24;;;;;;;13.30;7.80;;;;;;;26.76;100.00;100142.14;106181;1283;66589;-93
2023/07/21 03:59:13;;;;;;;13.80;7.30;;;;;;;26.84;100.00;100145.29;106309;1285;61144;-91
2023/07/21 04:02:01;;;;;;;13.70;7.00;;;;;;;26.88;100.00;100146.58;106323;1285;64946;-90
2023/07/21 04:04:53;;;;;;;11.80;7.30;;;;;;;26.95;100.00;100151.39;106233;1285;60090;-91
2023/07/21 04:07:42;;;;;;;9.30;6.90;;;;;;;26.97;100.00;100157.48;106246;1285;60150;-88
2023/07/21 04:10:31;;;;;;;11.30;6.80;;;;;;;26.89;100.00;100160.10;106180;1288;67085;-90
2023/07/21 04:13:19;;;;;;;10.90;7.30;;;;;;;26.95;100.00;100165.56;106150;1285;61238;-92
2023/07/21 04:16:07;;;;;;;12.70;7.80;;;;;;;26.97;100.00;100168.29;106115;1284;62632;-91
2023/07/21 04:18:55;;;;;;;11.00;8.00;;;;;;;27.10;100.00;100171.91;106431;1283;60396;-89
2023/07/21 04:21:43;;;;;;;13.00;8.00;;;;;;;27.19;100.00;100175.88;105896;1284;569598;-89
2023/07/21 04:24:33;;;;;;;10.00;7.50;;;;;;;27.20;100.00;100173.71;106339;1284;67899;-90
2023/07/21 04:27:22;;;;;;;8.70;7.00;;;;;;;27.27;100.00;100182.94;106330;1283;60005;-91
2023/07/21 04:30:10;;;;;;;13.90;7.70;;;;;;;27.36;100.00;100186.55;106197;1284;64065;-90
2023/07/21 04:32:59;;;;;;;13.10;7.60;;;;;;;27.42;100.00;100188.88;106366;1285;60554;-88
2023/07/21 04:35:48;;;;;;;9.10;6.60;;;;;;;27.43;100.00;100192.48;106448;1284;60010;-91
2023/07/21 04:38:42;;;;;;;11.90;7.10;;;;;;;27.40;100.00;100195.21;106118;1285;67072;-89
2023/07/21 04:41:35;;;;;;;10.80;7.20;;;;;;;27.51;100.00;100199.14;106289;1285;61119;-91
2023/07/21 04:44:23;;;;;;;9.90;6.70;;;;;;;27.58;100.00;100206.27;106353;1284;63802;-91
2023/07/21 04:47:10;;;;;;;6.40;5.80;;;;;;;27.55;100.00;100211.48;106189;1285;60585;-90
2023/07/21 04:50:04;;;;;;;10.90;6.60;;;;;;;27.60;100.00;100212.77;106392;1284;60461;-88
2023/07/21 04:52:52;;;;;;;12.60;6.80;;;;;;;27.65;100.00;100212.29;106365;1285;66889;-90
2023/07/21 04:55:41;;;;;;;8.30;6.00;;;;;;;27.76;100.00;100211.88;106435;1284;61113;-90
2023/07/21 04:58:30;;;;;;;6.60;5.80;;;;;;;27.64;100.00;100213.56;106241;1284;64902;-91
2023/07/21 05:01:19;;;;;;;11.70;6.20;;;;;;;27.85;100.00;100217.17;106464;1284;60933;-90
2023/07/21 05:04:07;;;;;;;10.80;5.70;;;;;;;27.84;100.00;100220.13;106364;1285;60191;-89
2023/07/21 05:07:04;;;;;;;9.10;5.30;;;;;;;27.84;100.00;100220.45;106276;1284;67161;-90
2023/07/21 05:09:55;;;;;;;;;;;;;;;27.86;100.00;100225.38;106356;1285;61192;-89
2023/07/21 05:12:44;;;;;;;7.80;5.60;;;;;;;27.84;100.00;100232.92;106333;1284;64250;-88
2023/07/21 05:15:43;;;;;;;8.00;5.60;;;;;;;27.94;100.00;100236.44;106464;1283;60271;-89
2023/07/21 05:18:45;;;;;;;6.50;4.80;;;;;;;28.19;100.00;100239.60;106439;1284;60081;-88
2023/07/21 05:22:03;;;;;;;9.00;4.60;;;;;;;28.33;100.00;100252.08;106019;1284;67117;-89
2023/07/21 05:25:07;;;;;;;5.60;4.80;;;;;;;28.42;100.00;100256.55;106347;1284;60706;-88
2023/07/21 05:27:58;;;;;;;6.00;4.80;;;;;;;28.55;100.00;100263.69;106340;1283;62813;-88
2023/07/21 05:30:48;;;;;;;7.60;5.30;;;;;;;28.60;100.00;100266.23;106217;1283;60013;-89
2023/07/21 05:33:38;;;;;;;6.30;4.30;;;;;;;28.70;100.00;100272.45;106260;1284;60329;-89
2023/07/21 05:36:28;;;;;;;4.80;4.20;;;;;;;28.73;100.00;100273.33;106386;1284;68443;-91
2023/07/21 05:39:16;;;;;;;4.90;4.20;;;;;;;28.82;100.00;100276.02;106499;1283;60709;-89
2023/07/21 05:42:05;;;;;;;4.00;3.50;;;;;;;28.86;100.00;100279.95;106475;1283;63947;-91
2023/07/21 05:44:55;;;;;;;7.70;4.20;;;;;;;28.78;100.00;100281.67;106262;1284;60247;-92
2023/07/21 05:47:44;;;;;;;6.90;4.10;;;;;;;28.76;100.00;100282.40;106267;1282;59919;-90
2023/07/21 05:50:37;;;;;;;4.10;3.70;;;;;;;28.78;100.00;100284.88;106363;1282;67918;-92
2023/07/21 05:53:27;;;;;;;4.50;3.60;;;;;;;28.86;100.00;100287.02;106098;1286;60927;-91
2023/07/21 05:56:16;;;;;;;5.70;4.30;;;;;;;28.89;100.00;100289.09;106343;1284;65048;-91
2023/07/21 05:59:19;;;;;;;5.70;4.00;;;;;;;28.98;100.00;100291.94;106191;1284;59982;-88
2023/07/21 06:02:08;;;;;;;5.30;4.10;;;;;;;29.06;100.00;100298.44;106272;1285;59850;-91
2023/07/21 06:04:57;;;;;;;5.90;4.30;;;;;;;29.17;100.00;100297.43;106384;1284;68159;-93
2023/07/21 06:07:58;;;;;;;6.00;4.30;;;;;;;29.27;100.00;100298.97;106470;1283;61166;-91
2023/07/21 06:11:15;;;;;;;4.50;4.00;;;;;;;29.32;100.00;100295.23;105905;1282;62690;-91
2023/07/21 06:14:23;;;;;;;9.10;5.20;;;;;;;29.22;100.00;100302.79;106300;1283;60254;-91
2023/07/21 06:17:19;;;;;;;5.60;3.80;;;;;;;29.11;100.00;100306.38;106454;1284;59995;-91
2023/07/21 06:20:12;;;;;;;6.30;4.50;;;;;;;29.11;100.00;100310.38;106314;1285;65797;-91
2023/07/21 06:23:04;;;;;;;5.00;3.90;;;;;;;29.20;100.00;100313.89;106342;1285;60474;-94
2023/07/21 06:25:57;;;;;;;4.60;4.00;;;;;;;29.28;100.00;100314.96;106366;1282;62953;-94
2023/07/21 06:28:45;;;;;;;6.80;5.20;;;;;;;29.49;100.00;100310.09;106235;1285;59970;-92
2023/07/21 06:31:37;;;;;;;5.30;4.60;;;;;;;29.73;100.00;100313.65;106172;1282;60459;-94
2023/07/21 06:34:42;;;;;;;5.70;4.00;;;;;;;29.92;100.00;100311.80;106356;1284;67872;-92
2023/07/21 06:37:49;;;;;;;4.30;3.90;;;;;;;29.98;100.00;100311.35;106285;1282;60882;-93
2023/07/21 06:40:56;;;;;;;6.40;4.10;;;;;;;29.86;100.00;100318.85;106294;1284;65125;-94
2023/07/21 06:43:52;;;;;;;4.60;4.10;;;;;;;29.79;100.00;100325.34;106372;1284;60570;-93
2023/07/21 06:47:02;;;;;;;6.00;4.40;;;;;;;29.82;100.00;100332.96;106466;1284;60614;-91
2023/07/21 06:50:15;;;;;;;6.10;4.30;;;;;;;29.96;100.00;100333.74;106504;1282;68003;-93
2023/07/21 06:53:09;;;;;;;4.60;4.00;;;;;;;29.94;100.00;100335.05;106506;1282;60095;-91
2023/07/21 06:56:00;;;;;;;4.80;4.10;;;;;;;30.03;100.00;100330.21;106518;1284;78828;-91
2023/07/21 06:58:48;;;;;;;6.30;4.20;;;;;;;30.24;100.00;100328.29;106400;1284;60663;-93
2023/07/21 07:01:38;;;;;;;6.50;4.20;;;;;;;30.45;100.00;100326.31;106196;1285;60365;-91
2023/07/21 07:04:33;;;;;;;5.90;4.20;;;;;;;30.66;100.00;100328.10;106524;1283;66795;-94
2023/07/21 07:07:22;;;;;;;6.40;4.30;;;;;;;30.89;100.00;100329.30;106434;1285;61187;-94
2023/07/21 07:10:10;;;;;;;4.20;3.80;;;;;;;31.06;100.00;100331.11;106206;1284;65094;-92
2023/07/21 07:12:59;;;;;;;4.60;3.90;;;;;;;31.27;100.00;100332.45;106393;1284;60513;-93
2023/07/21 07:15:49;;;;;;;5.10;4.20;;;;;;;31.35;100.00;100331.27;106294;1284;60402;-92
2023/07/21 07:18:37;;;;;;;4.80;3.90;;;;;;;31.38;100.00;100335.29;106336;1284;67450;-92
2023/07/21 07:21:25;;;;;;;6.50;4.10;;;;;;;31.47;100.00;100337.98;106472;1283;61096;-93
2023/07/21 07:24:14;;;;;;;5.00;4.00;;;;;;;31.55;100.00;100340.62;106472;1283;65230;-92
2023/07/21 07:27:05;;;;;;;5.00;4.50;;;;;;;31.75;100.00;100340.08;106235;1283;59926;-91
2023/07/21 07:29:52;;;;;;;5.00;3.90;;;;;;;31.92;100.00;100341.36;106519;1282;60244;-91
2023/07/21 07:32:40;;;;;;;4.80;4.30;;;;;;;32.12;100.00;100344.84;106435;1282;67646;-90
2023/07/21 07:35:29;;;;;;;4.00;3.60;;;;;;;32.34;99.56;100347.51;106257;1284;61333;-91
2023/07/21 07:38:24;;;;;;;5.30;3.50;;;;;;;32.41;96.86;100355.45;106289;1284;63977;-91
2023/07/21 07:41:12;;;;;;;4.70;3.40;;;;;;;32.48;98.86;100358.48;106486;1283;60574;-90
2023/07/21 07:44:00;;;;;;;5.10;4.00;;;;;;;32.52;89.59;100362.05;106512;1284;60510;-90
2023/07/21 07:46:48;;;;;;;7.50;3.70;;;;;;;32.51;92.31;100366.94;106409;1283;67953;-90
2023/07/21 07:49:37;;;;;;;4.30;3.70;;;;;;;32.59;97.76;100364.36;106425;1285;61356;-90
2023/07/21 07:52:25;;;;;;;8.70;3.50;;;;;;;32.64;95.24;100363.15;106454;1284;64590;-90
2023/07/21 07:55:15;;;;;;;4.60;3.30;;;;;;;32.67;87.39;100367.13;106353;1286;60048;-91
2023/07/21 07:58:04;;;;;;;4.60;3.60;;;;;;;32.66;87.73;100366.26;106453;1284;59886;-90
2023/07/21 08:00:57;;;;;;;3.80;3.50;;;;;;;32.68;88.13;100368.32;106229;1285;67783;-91
2023/07/21 08:03:45;;;;;;;5.00;3.10;;;;;;;32.65;88.07;100368.77;106542;1282;61212;-90
2023/07/21 08:06:35;;;;;;;3.00;2.70;;;;;;;32.79;91.01;100373.93;106271;1284;64778;-90
2023/07/21 08:09:24;;;;;;;3.30;2.80;;;;;;;32.96;93.99;100371.16;106343;1282;60275;-90
2023/07/21 08:12:11;;;;;;;5.80;3.20;;;;;;;33.04;94.46;100372.78;106473;1285;60476;-91
2023/07/21 08:14:59;;;;;;;4.30;2.90;;;;;;;33.16;93.80;100375.14;106476;1283;68004;-90
2023/07/21 08:17:51;;;;;;;3.60;2.90;;;;;;;33.33;95.51;100374.05;106225;1285;60587;-92
2023/07/21 08:20:40;;;;;;;5.40;2.70;;;;;;;33.29;89.44;100374.20;106332;1282;65341;-90
2023/07/21 08:23:29;;;;;;;2.60;2.30;;;;;;;33.32;88.94;100379.39;106318;1284;60799;-92
2023/07/21 08:26:18;;;;;;;3.20;2.70;;;;;;;33.25;91.38;100379.15;106489;1282;60052;-92
2023/07/21 08:29:08;;;;;;;5.70;2.80;;;;;;;33.02;90.03;100377.84;106221;1284;67564;-91
2023/07/21 08:31:57;;;;;;;2.40;2.20;;;;;;;33.01;87.98;100382.23;106337;1284;60231;-91
2023/07/21 08:34:46;;;;;;;3.70;2.60;;;;;;;33.09;88.78;100382.23;106583;1282;65266;-91
2023/07/21 08:37:34;;;;;;;3.40;3.00;;;;;;;33.18;88.43;100381.97;106366;1282;60740;-89
2023/07/21 08:40:25;;;;;;;3.20;2.70;;;;;;;32.93;83.23;100383.11;106302;1284;60600;-92
2023/07/21 08:43:13;;;;;;;3.00;2.40;;;;;;;32.76;83.73;100381.10;106428;1285;66730;-90
2023/07/21 08:46:03;;;;;;;2.70;2.50;;;;;;;32.86;87.72;100383.56;106316;1285;61360;-90
2023/07/21 08:48:52;;;;;;;0.40;0.40;;;;;;;33.08;90.60;100383.61;106461;1284;71547;-89
2023/07/21 08:51:42;;;;;;;2.80;2.60;;;;;;;33.33;93.22;100384.48;106348;1284;60699;-89
2023/07/21 08:54:30;;;;;;;3.30;2.30;;;;;;;33.69;91.34;100384.74;106205;1284;60426;-92
2023/07/21 08:57:18;;;;;;;2.50;2.30;;;;;;;33.87;89.67;100382.31;106400;1282;65710;-92
2023/07/21 09:00:10;;;;;;;3.20;2.50;;;;;;;33.99;87.46;100383.55;106362;1284;61112;-90
2023/07/21 09:03:02;;;;;;;2.70;2.20;;;;;;;34.04;90.48;100390.96;106450;1283;65933;-92
2023/07/21 09:05:54;;;;;;;2.20;1.90;;;;;;;34.07;91.31;100390.00;106458;1282;60032;-91
2023/07/21 09:08:45;;;;;;;4.10;2.30;;;;;;;34.17;87.29;100393.27;106442;1282;60301;-90
2023/07/21 09:11:37;;;;;;;2.20;2.00;;;;;;;34.23;86.74;100395.46;106295;1284;67016;-91
2023/07/21 09:14:36;;;;;;;2.50;2.20;;;;;;;34.16;84.15;100392.95;106414;1284;60940;-90
2023/07/21 09:17:24;;;;;;;2.50;1.80;;;;;;;34.00;81.35;100388.55;106325;1284;64006;-91
2023/07/21 09:20:13;;;;;;;4.30;2.10;;;;;;;33.97;87.71;100384.89;106173;1284;60322;-89
2023/07/21 09:23:05;;;;;;;2.20;2.00;;;;;;;34.06;82.10;100391.09;106371;1282;60057;-89
2023/07/21 09:25:56;;;;;;;4.00;2.30;;;;;;;34.27;87.41;100396.26;106339;1282;66769;-89
2023/07/21 09:28:45;;;;;;;3.80;2.40;;;;;;;34.21;82.31;100404.58;106342;1282;61835;-91
2023/07/21 09:31:35;;;;;;;4.30;2.70;;;;;;;34.15;84.02;100402.30;106305;1282;65168;-91
2023/07/21 09:34:27;;;;;;;3.40;2.90;;;;;;;34.16;80.93;100404.88;106237;1285;60675;-90
2023/07/21 09:37:19;;;;;;;4.90;2.90;;;;;;;34.24;75.14;100403.71;106337;1285;59987;-92
2023/07/21 09:40:11;;;;;;;3.20;2.70;;;;;;;34.19;75.07;100405.95;106511;1283;67805;-91
2023/07/21 09:43:18;;;;;;;2.80;2.20;;;;;;;34.06;79.36;100404.95;106356;1282;60822;-93
2023/07/21 09:46:21;;;;;;;9.60;1.90;;;;;;;33.91;85.44;100408.84;106268;1283;64431;-93
2023/07/21 09:49:18;;;;;;;4.20;3.10;;;;;;;33.96;78.05;100410.84;106209;1285;60111;-91
2023/07/21 09:52:46;;;;;;;5.90;3.70;;;;;;;34.07;75.83;100409.45;106364;1284;60490;-91
2023/07/21 09:55:40;;;;;;;3.40;3.10;;;;;;;34.21;66.28;100414.00;106325;1283;66928;-93
2023/07/21 09:58:30;;;;;;;3.90;3.30;;;;;;;34.26;58.05;100417.77;106220;1282;62253;-91
2023/07/21 10:01:31;;;;;;;4.80;3.40;;;;;;;34.33;52.44;100416.36;106448;1284;63917;-91
2023/07/21 10:04:20;;;;;;;3.60;3.30;;;;;;;34.40;51.10;100408.39;106269;1284;60410;-90
2023/07/21 10:07:09;;;;;;;3.50;3.20;;;;;;;34.56;49.02;100405.33;106260;1282;60811;-91
2023/07/21 10:10:00;;;;;;;5.20;3.30;;;;;;;34.62;45.41;100403.64;106363;1284;68090;-91
2023/07/21 10:13:07;;;;;;;4.00;3.10;;;;;;;34.48;42.34;100410.95;106347;1282;60757;-93
2023/07/21 10:16:01;;;;;;;3.30;3.00;;;;;;;34.36;41.11;100408.99;106297;1286;63171;-89
2023/07/21 10:19:06;;;;;;;2.20;1.60;;;;;;;34.29;40.07;100409.59;106181;1285;59967;-92
2023/07/21 10:22:00;;;;;;;6.20;2.30;;;;;;;34.33;38.53;100416.85;106375;1282;60112;-90
2023/07/21 10:24:52;;;;;;;4.50;2.90;;;;;;;34.46;38.68;100414.65;106228;1285;76176;-91
2023/07/21 10:28:04;;;;;;;3.70;3.20;;;;;;;34.59;38.61;100414.64;106258;1284;60683;-92
2023/07/21 10:31:03;;;;;;;3.80;3.10;;;;;;;34.58;39.81;100415.41;106312;1282;63975;-91
2023/07/21 10:34:11;;;;;;;4.00;3.60;;;;;;;34.68;41.86;100418.88;106193;1284;61277;-93
2023/07/21 10:37:09;;;;;;;6.00;4.50;;;;;;;34.92;41.92;100421.29;106274;1282;59959;-93
2023/07/21 10:40:00;;;;;;;4.50;4.10;;;;;;;35.20;41.15;100422.56;106454;1283;67938;-93
2023/07/21 10:42:48;;;;;;;4.30;3.90;;;;;;;35.23;39.44;100426.69;106311;1286;60979;-91
2023/07/21 10:45:37;;;;;;;5.50;4.20;;;;;;;35.29;38.63;100430.17;106363;1285;65390;-92
2023/07/21 10:48:27;;;;;;;4.40;3.80;;;;;;;35.34;37.20;100435.13;106251;1284;60079;-91
2023/07/21 10:51:24;;;;;;;5.60;4.60;;;;;;;35.31;36.89;100437.91;106411;1284;60055;-92
2023/07/21 10:54:16;;;;;;;5.40;4.20;;;;;;;35.51;38.71;100439.35;106300;1284;66859;-91
2023/07/21 10:57:04;;;;;;;4.30;3.90;;;;;;;35.63;39.05;100432.42;106459;1285;61077;-90
2023/07/21 10:59:52;;;;;;;4.10;3.50;;;;;;;35.58;38.27;100436.86;106205;1285;64124;-90
2023/07/21 11:02:43;;;;;;;3.90;3.50;;;;;;;35.67;37.48;100442.52;106135;1283;60397;-90
2023/07/21 11:05:36;;;;;;;3.80;3.20;;;;;;;35.95;37.73;100437.77;106339;1284;60399;-92
2023/07/21 11:08:29;;;;;;;3.10;2.80;;;;;;;36.06;35.80;100443.08;106338;1285;67135;-90
2023/07/21 11:11:20;;;;;;;3.50;2.90;;;;;;;36.01;33.96;100443.35;106299;1285;60339;-90
2023/07/21 11:14:12;;;;;;;3.60;3.10;;;;;;;35.86;34.87;100439.67;106372;1283;64927;-89
2023/07/21 11:17:15;;;;;;;3.50;3.20;;;;;;;35.86;34.79;100432.60;106337;1285;59985;-90
2023/07/21 11:20:10;;;;;;;3.40;3.10;;;;;;;36.03;35.16;100434.10;106244;1284;60145;-90
2023/07/21 11:23:14;;;;;;;2.80;2.60;;;;;;;36.35;35.73;100440.39;106458;1282;68060;-90
2023/07/21 11:26:12;;;;;;;2.80;2.40;;;;;;;36.62;34.00;100442.25;106313;1284;60987;-91
2023/07/21 11:29:04;;;;;;;2.80;2.10;;;;;;;36.80;33.40;100440.33;106436;1283;65288;-91
2023/07/21 11:31:53;;;;;;;3.00;1.80;;;;;;;36.75;32.86;100438.85;106406;1285;59977;-91
2023/07/21 11:34:43;;;;;;;2.30;2.10;;;;;;;36.62;33.17;100440.05;106320;1285;59995;-91
2023/07/21 11:37:43;;;;;;;2.10;1.70;;;;;;;36.73;32.52;100446.33;106209;1283;65711;-91
2023/07/21 11:40:33;;;;;;;2.20;2.00;;;;;;;36.48;32.46;100448.73;106186;1282;60607;-91
2023/07/21 11:43:22;;;;;;;3.00;1.70;;;;;;;36.11;32.83;100451.18;106291;1282;65283;-88
2023/07/21 11:46:23;;;;;;;2.70;1.80;;;;;;;36.13;32.67;100451.89;106273;1284;60100;-90
2023/07/21 11:49:23;;;;;;;2.20;1.80;;;;;;;36.42;32.69;100448.43;106281;1286;60028;-91
2023/07/21 11:52:24;;;;;;;3.50;1.80;;;;;;;36.52;32.07;100440.44;106312;1284;74517;-91
2023/07/21 11:55:22;;;;;;;4.50;3.10;;;;;;;36.47;32.37;100443.71;106294;1282;60675;-92
2023/07/21 11:58:12;;;;;;;7.00;1.90;;;;;;;36.38;31.97;100448.14;106220;1284;64096;-92
2023/07/21 12:00:59;;;;;;;4.40;2.10;;;;;;;36.48;31.87;100447.51;106306;1285;60297;-89
2023/07/21 12:03:48;;;;;;;2.10;1.90;;;;;;;36.27;31.48;100446.39;106470;1284;60073;-91
2023/07/21 12:10:58;;;;;;;2.80;1.90;;;;;;;36.11;30.29;100453.90;106451;1284;61295;-91
2023/07/21 12:13:46;;;;;;;3.90;2.30;;;;;;;36.10;31.11;100448.67;106357;1283;65626;-90
2023/07/21 12:16:39;;;;;;;5.70;2.00;;;;;;;36.02;30.89;100455.26;106385;1284;60464;-91
2023/07/21 12:19:27;;;;;;;2.60;2.30;;;;;;;35.88;30.58;100456.10;106434;1286;60491;-91
2023/07/21 12:22:16;;;;;;;2.20;1.90;;;;;;;35.73;31.66;100457.30;106261;1285;67934;-92
2023/07/21 12:25:09;;;;;;;1.90;1.80;;;;;;;35.96;31.59;100453.58;106149;1285;60656;-90
2023/07/21 12:28:00;;;;;;;2.10;1.70;;;;;;;35.96;32.25;100456.64;106439;1282;65103;-92
2023/07/21 12:30:49;;;;;;;2.40;2.20;;;;;;;35.94;31.73;100458.60;106381;1286;60432;-92
2023/07/21 12:33:44;;;;;;;2.00;1.60;;;;;;;35.98;30.44;100460.48;106355;1284;60638;-93
2023/07/21 12:36:33;;;;;;;2.00;1.80;;;;;;;35.97;30.31;100459.14;106437;1283;67865;-92
2023/07/21 12:39:22;;;;;;;2.50;1.80;;;;;;;36.10;30.63;100455.39;106294;1285;60556;-91
2023/07/21 12:42:11;;;;;;;2.20;1.60;;;;;;;36.35;29.60;100456.95;106423;1285;64183;-91
2023/07/21 12:44:59;;;;;;;3.00;2.20;;;;;;;36.39;29.45;100454.56;106341;1285;60083;-92
2023/07/21 12:47:47;;;;;;;4.70;1.70;;;;;;;36.20;29.25;100452.64;106270;1285;60259;-90
2023/07/21 12:50:35;;;;;;;2.10;1.90;;;;;;;35.96;29.09;100451.80;106406;1285;67253;-90
2023/07/21 12:53:23;;;;;;;2.20;1.90;;;;;;;36.16;29.24;100445.45;106383;1285;60829;-92
2023/07/21 12:56:12;;;;;;;3.50;1.50;;;;;;;36.62;28.88;100449.23;106140;1285;64142;-90
2023/07/21 12:59:00;;;;;;;2.50;1.50;;;;;;;37.34;28.14;100449.83;106295;1288;60081;-90
2023/07/21 13:01:49;;;;;;;1.70;1.60;;;;;;;37.96;27.43;100455.04;106234;1285;60610;-91
2023/07/21 13:04:38;;;;;;;2.90;1.60;;;;;;;38.39;26.88;100458.75;106288;1284;67197;-91
2023/07/21 13:07:29;;;;;;;2.80;1.40;;;;;;;38.50;26.55;100466.56;106163;1283;60987;-94
2023/07/21 13:10:32;;;;;;;2.20;1.70;;;;;;;38.31;27.31;100460.62;106269;1284;73977;-90
2023/07/21 13:13:22;;;;;;;1.50;1.30;;;;;;;38.36;27.57;100462.27;106223;1285;60488;-90
2023/07/21 13:16:10;;;;;;;2.00;1.10;;;;;;;38.29;27.00;100465.52;106373;1282;59938;-89
2023/07/21 13:19:01;;;;;;;2.20;1.10;;;;;;;37.82;26.84;100463.65;106356;1285;67154;-89
2023/07/21 13:21:50;;;;;;;4.10;1.10;;;;;;;37.21;27.13;100456.91;106361;1282;70117;-91
2023/07/21 14:42:27;;;;;;;1.30;0.80;;;;;;;37.39;28.20;100454.09;106389;1286;60501;-90
2023/07/21 14:45:21;;;;;;;1.70;0.70;;;;;;;37.77;27.42;100456.33;106373;1283;64985;-92
2023/07/21 14:48:14;;;;;;;2.60;0.80;;;;;;;37.81;26.68;100462.46;106307;1284;60341;-92
2023/07/21 14:51:11;;;;;;;0.60;0.60;;;;;;;37.71;26.43;100465.46;106225;1288;59974;-92
2023/07/21 14:54:06;;;;;;;2.40;1.00;;;;;;;37.68;26.30;100463.58;106338;1285;69141;-92
2023/07/21 14:57:07;;;;;;;0.80;0.80;;;;;;;37.52;26.80;100463.84;106134;1284;61951;-90
2023/07/21 14:59:56;;;;;;;1.20;1.10;;;;;;;36.98;27.20;100462.94;106326;1285;74133;-90
2023/07/21 15:02:45;;;;;;;4.30;1.20;;;;;;;36.53;28.02;100465.73;106251;1284;60421;-92
2023/07/21 15:05:37;;;;;;;3.60;1.30;;;;;;;36.30;28.41;100464.86;106294;1285;60071;-91
2023/07/21 15:08:38;;;;;;;2.10;1.50;;;;;;;36.12;28.52;100463.41;106372;1285;66692;-90
2023/07/21 15:11:43;;;;;;;3.70;1.10;;;;;;;36.03;27.89;100456.77;106427;1283;61219;-92
2023/07/21 15:14:50;;;;;;;1.30;0.90;;;;;;;35.89;28.01;100460.85;106265;1283;63956;-90
2023/07/21 15:17:55;;;;;;;1.90;1.40;;;;;;;35.84;28.62;100463.27;106149;1285;60082;-90
2023/07/21 15:20:48;;;;;;;1.50;1.40;;;;;;;35.84;28.96;100456.45;106281;1284;59961;-89
2023/07/21 15:23:36;;;;;;;1.80;1.60;;;;;;;35.82;28.67;100455.89;106289;1288;66900;-90
2023/07/21 15:26:24;;;;;;;1.80;1.20;;;;;;;35.70;28.98;100454.70;106416;1284;61066;-90
2023/07/21 15:29:13;;;;;;;2.00;0.60;;;;;;;35.66;28.44;100455.08;106190;1285;66133;-89
2023/07/21 15:32:02;;;;;;;1.20;0.70;;;;;;;35.56;28.13;100452.60;106074;1285;60204;-91
2023/07/21 15:34:51;;;;;;;1.00;0.70;;;;;;;35.36;27.94;100458.19;106410;1283;60087;-89
2023/07/21 15:37:39;;;;;;;1.60;1.00;;;;;;;35.12;28.04;100456.13;106298;1288;68001;-90
2023/07/21 15:40:27;;;;;;;4.10;0.90;;;;;;;34.90;28.31;100456.89;106392;1285;60324;-90
2023/07/21 15:43:15;;;;;;;1.10;1.00;;;;;;;34.78;28.71;100461.73;106359;1284;65166;-91
2023/07/21 15:46:03;;;;;;;3.10;1.10;;;;;;;34.79;28.94;100460.19;106218;1286;60003;-90
2023/07/21 15:48:51;;;;;;;1.40;0.90;;;;;;;34.71;28.77;100462.99;106257;1285;59933;-89
2023/07/21 15:51:40;;;;;;;1.70;0.90;;;;;;;34.69;28.67;100464.56;106285;1285;67946;-91
2023/07/21 15:54:29;;;;;;;2.40;0.90;;;;;;;34.66;28.81;100467.17;106345;1284;61279;-90
2023/07/21 15:57:17;;;;;;;2.10;1.10;;;;;;;34.66;29.31;100473.98;106316;1285;64296;-92
2023/07/21 16:00:10;;;;;;;1.00;1.00;;;;;;;34.65;29.30;100475.54;106332;1285;60024;-92
2023/07/21 16:02:59;;;;;;;3.00;1.00;;;;;;;34.58;29.41;100473.91;106291;1285;60512;-90
2023/07/21 16:05:47;;;;;;;4.20;0.90;;;;;;;34.48;29.82;100472.39;106446;1283;66922;-90
2023/07/21 16:08:37;;;;;;;1.50;0.90;;;;;;;34.40;30.26;100471.36;106158;1285;60536;-92
2023/07/21 16:11:25;;;;;;;3.50;0.90;;;;;;;34.40;29.98;100474.93;106215;1285;63932;-90
2023/07/21 16:14:15;;;;;;;1.70;1.20;;;;;;;34.41;30.09;100479.52;106230;1284;60295;-91
2023/07/21 16:17:03;;;;;;;1.20;0.90;;;;;;;34.32;30.34;100479.19;106464;1284;60220;-87
2023/07/21 16:19:52;;;;;;;2.80;1.50;;;;;;;34.24;30.62;100477.51;106407;1284;67695;-88
2023/07/21 16:22:41;;;;;;;0.80;0.80;;;;;;;34.20;30.81;100475.42;106277;1283;192327;-88
2023/07/21 16:25:29;;;;;;;2.30;0.80;;;;;;;34.04;31.16;100478.42;106468;1284;64077;-90
2023/07/21 16:28:17;;;;;;;0.90;0.90;;;;;;;33.94;31.58;100477.60;106402;1284;60504;-91
2023/07/21 16:31:05;;;;;;;0.90;0.80;;;;;;;33.86;31.73;100471.58;106459;1283;59975;-91
2023/07/21 16:33:54;;;;;;;1.80;1.00;;;;;;;33.75;32.00;100469.68;106348;1288;68092;-91
2023/07/21 16:36:42;;;;;;;1.20;1.00;;;;;;;33.75;32.18;100465.89;106261;1285;61389;-91
2023/07/21 16:39:30;;;;;;;1.40;0.90;;;;;;;33.78;31.98;100468.34;106406;1285;65286;-91
2023/07/21 16:42:18;;;;;;;1.80;1.00;;;;;;;33.80;31.95;100473.23;106445;1284;61549;-88
2023/07/21 16:45:07;;;;;;;2.50;0.90;;;;;;;33.70;32.34;100474.19;106291;1285;60159;-92
2023/07/21 16:47:55;;;;;;;4.70;1.20;;;;;;;33.61;32.68;100478.19;106426;1284;67887;-87
2023/07/21 16:50:45;;;;;;;2.80;0.90;;;;;;;33.49;32.92;100480.60;106435;1285;61412;-91
2023/07/21 16:53:33;;;;;;;1.30;1.20;;;;;;;33.30;33.40;100480.48;106433;1285;65114;-89
2023/07/21 16:56:21;;;;;;;4.00;0.80;;;;;;;33.20;33.64;100483.04;106469;1284;60015;-91
2023/07/21 16:59:09;;;;;;;4.10;0.80;;;;;;;33.15;33.95;100482.80;106328;1285;60017;-91
2023/07/21 17:01:57;;;;;;;1.40;0.80;;;;;;;33.09;33.94;100487.37;106430;1284;65799;-87
2023/07/21 17:04:54;;;;;;;2.90;1.10;;;;;;;33.05;34.54;100490.61;106523;1285;61950;-90
2023/07/21 17:07:43;;;;;;;2.10;1.40;;;;;;;33.02;34.81;100495.34;106497;1285;64261;-91